Russellville, AR

3:57 PM CDT on September 02, 2014 (GMT -0500)
Amateur Radio Station WB5JJJ | Change Station
CLOSE
Current Station
Personal Weather Station
Location: Russellville, AR
Elevation: 377 ft
Nearby Weather Stations

Elev 377 ft 35.28 °N, 93.15 °W | Updated 3 seconds ago

Scattered Clouds
Scattered Clouds
73.0 °F
Feels Like 73.0 °F
N
0.0
Wind Variable Wind from NNE
Gusts 1.0 mph

Today
High -- | Low -- °F
--% Chance of Precip.
Yesterday
High -- | Low -- °F
Precip. -- in
6:45 AM 7:38 PM
First Quarter, 55% visible
Pressure 29.95 in
Visibility 10.0 miles
Clouds Scattered Clouds 1200 ft
Dew Point 73 °F
Humidity 100%
Rainfall 0.41 in
Snow Depth Not available.
UV 5 out of 12
Pollen 10.10 out of 12
Air Quality Not available.
Flu Activity Not available.
SPECI KRUE 022037Z AUTO 00000KT 10SM SCT012 23/21 A2995 RMK AO2 T02330206

More Conditions Fewer Conditions

Pressure 29.95 in
Visibility 10.0 miles
Clouds Scattered Clouds 1200 ft
Dew Point 73 °F
Humidity 100%
Rainfall 0.41 in
Snow Depth Not available.
UV 5 out of 12
Pollen 10.10 out of 12
Air Quality Not available.
Flu Activity Not available.
SPECI KRUE 022037Z AUTO 00000KT 10SM SCT012 23/21 A2995 RMK AO2 T02330206

More Conditions Fewer Conditions

10-Day Weather Forecast

Almanac

Astronomy

Sep. 02, 2014 Rise Set
Actual Time 6:45 AM CDT 7:38 PM CDT
Civil Twilight 6:19 AM CDT 8:03 PM CDT
Nautical Twilight 5:49 AM CDT 8:34 PM CDT
Astronomical Twilight 5:17 AM CDT 9:05 PM CDT
Moon 2:15 PM CDT No Moon Set
Length of Visible Light 13h 44m
Length of Day
12h 52m
Tomorrow will be 2m 9s shorter.
First Quarter, 55% of the Moon is Illuminated
Today
First Quarter
Sep 8
Full
Sep 15
Last Quarter
Sep 24
New
Oct 1
First Quarter

Today's Extremes

State Highs State Lows

Community

WunderPhotos

Upload Photos

1,749,763 photos uploaded!

WunderBlogs® & News

Nearby

Snow Depth

Station Depth Elevation
No new snow has been reported.

Earthquake Activity

City Distance Mag. Time & Date
No recent earthquake activity has been reported nearby.
Minimum magnitude displayed is 2.5.

Coastal Water Temperatures

Place Temperature
No Stations Reporting

Nearby Weather Stations